Portada
METAR-TAF:

METAR-TAF

Aeroports :

Aeroport Internacional Maiquetía Simón Bolívar

Caracas, Veneçuela

latitud: 10-36N, longitud: 066-59W, altitud: 43 m

Observació

L'informe es va fer fa 50 minuts, a les 10:03 UTC
Vent 5 kt del Est/Nord-Est
Temperatura
Pressió 1012 hPa

METAR: SVMI 091003Z AUTO 07005KT NCD ///// Q1012

Hora: 06:53 (10:53 UTC)

Pronòstic

L'informe es va fer fa 6 hores i 53 minuts, a les 04:00 UTC
Pronòstic vàlid del 09 a les 06 UTC al 10 a les 06 UTC
Vent kt del Nord
Visibilitat 10 km o més
Núvols disperses a una alçada de 1600 ft
Temporalment
l' 09 a les 08 UTC al 09 a les 10 UTC
Vent kt del Nord
Visibilitat 10 km o més
Núvols disperses a una alçada de 1600 ft

TAF: SVMI 090400Z 0906/1006 00000KT 9999 SCT016 TX32/1018Z TN21/1007Z TEMPO 0908/0910 00000KT 9999 SCT016

Observacions i pronòstics meteorològics de més de 4000 aeroports (METAR i TAF).

Les estacions disponibles són els punts grocs i vermells al mapa.

Posi el ratolí al punt desitjat per veure el nom de l'estació.

Feu clic per veure les observacions i els pronòstics meteorològics.

Per canviar el mapa: feu clic els botons verds amb una creu de color negre per apropar; al botó verd amb un guió per allunyar la imatge; o en les fletxes verdes per a mapes adjacents.


METAR-TAF: